sensor_id;sensor_type;location;lat;lon;timestamp;temperature;humidity
26541;DHT22;14206;50.202;10.948;2023-11-19T00:01:48;6.30;96.60
26541;DHT22;14206;50.202;10.948;2023-11-19T00:04:15;6.30;96.60
26541;DHT22;14206;50.202;10.948;2023-11-19T00:10:14;6.40;96.60
26541;DHT22;14206;50.202;10.948;2023-11-19T00:12:43;6.40;96.60
26541;DHT22;14206;50.202;10.948;2023-11-19T00:15:18;6.40;96.60
26541;DHT22;14206;50.202;10.948;2023-11-19T00:17:47;6.40;96.60
26541;DHT22;14206;50.202;10.948;2023-11-19T00:20:17;6.40;96.60
26541;DHT22;14206;50.202;10.948;2023-11-19T00:22:45;6.40;96.60
26541;DHT22;14206;50.202;10.948;2023-11-19T00:25:17;6.50;96.60
26541;DHT22;14206;50.202;10.948;2023-11-19T00:27:44;6.50;96.60
26541;DHT22;14206;50.202;10.948;2023-11-19T00:30:12;6.50;96.60
26541;DHT22;14206;50.202;10.948;2023-11-19T00:32:40;6.50;96.60
26541;DHT22;14206;50.202;10.948;2023-11-19T00:35:08;6.50;96.60
26541;DHT22;14206;50.202;10.948;2023-11-19T00:37:37;6.60;96.60
26541;DHT22;14206;50.202;10.948;2023-11-19T00:40:04;6.50;96.60
26541;DHT22;14206;50.202;10.948;2023-11-19T00:42:32;6.50;96.60
26541;DHT22;14206;50.202;10.948;2023-11-19T00:44:59;6.50;96.60
26541;DHT22;14206;50.202;10.948;2023-11-19T00:47:28;6.60;96.60
26541;DHT22;14206;50.202;10.948;2023-11-19T00:49:55;6.60;96.60
26541;DHT22;14206;50.202;10.948;2023-11-19T00:52:22;6.60;96.60
26541;DHT22;14206;50.202;10.948;2023-11-19T00:54:49;6.60;96.60
26541;DHT22;14206;50.202;10.948;2023-11-19T00:57:16;6.70;96.60
26541;DHT22;14206;50.202;10.948;2023-11-19T00:59:43;6.70;96.60
26541;DHT22;14206;50.202;10.948;2023-11-19T01:02:10;6.70;96.60
26541;DHT22;14206;50.202;10.948;2023-11-19T01:04:38;6.70;96.60
26541;DHT22;14206;50.202;10.948;2023-11-19T01:07:05;6.70;96.60
26541;DHT22;14206;50.202;10.948;2023-11-19T01:09:42;6.70;96.60
26541;DHT22;14206;50.202;10.948;2023-11-19T01:12:09;6.70;96.60
26541;DHT22;14206;50.202;10.948;2023-11-19T01:14:37;6.80;96.60
26541;DHT22;14206;50.202;10.948;2023-11-19T01:17:05;6.80;96.60
26541;DHT22;14206;50.202;10.948;2023-11-19T01:19:32;6.80;96.60
26541;DHT22;14206;50.202;10.948;2023-11-19T01:21:59;6.80;96.60
26541;DHT22;14206;50.202;10.948;2023-11-19T01:24:26;6.80;96.60
26541;DHT22;14206;50.202;10.948;2023-11-19T01:26:55;6.80;96.60
26541;DHT22;14206;50.202;10.948;2023-11-19T01:29:24;6.80;96.60
26541;DHT22;14206;50.202;10.948;2023-11-19T01:31:51;6.80;96.60
26541;DHT22;14206;50.202;10.948;2023-11-19T01:34:18;6.80;96.60
26541;DHT22;14206;50.202;10.948;2023-11-19T01:36:47;6.80;96.60
26541;DHT22;14206;50.202;10.948;2023-11-19T01:39:16;6.70;96.60
26541;DHT22;14206;50.202;10.948;2023-11-19T01:41:43;6.70;96.60
26541;DHT22;14206;50.202;10.948;2023-11-19T01:44:10;6.70;96.60
26541;DHT22;14206;50.202;10.948;2023-11-19T01:46:41;6.80;96.60
26541;DHT22;14206;50.202;10.948;2023-11-19T01:49:09;6.80;96.60
26541;DHT22;14206;50.202;10.948;2023-11-19T01:51:36;6.70;96.60
26541;DHT22;14206;50.202;10.948;2023-11-19T01:54:03;6.70;96.60
26541;DHT22;14206;50.202;10.948;2023-11-19T01:56:31;6.70;96.60
26541;DHT22;14206;50.202;10.948;2023-11-19T01:58:58;6.70;96.60
26541;DHT22;14206;50.202;10.948;2023-11-19T02:01:26;6.70;96.60
26541;DHT22;14206;50.202;10.948;2023-11-19T02:03:53;6.70;96.60
26541;DHT22;14206;50.202;10.948;2023-11-19T02:06:21;6.70;96.60
26541;DHT22;14206;50.202;10.948;2023-11-19T02:08:48;6.70;96.60
26541;DHT22;14206;50.202;10.948;2023-11-19T02:11:16;6.70;96.60
26541;DHT22;14206;50.202;10.948;2023-11-19T02:13:42;6.70;96.60
26541;DHT22;14206;50.202;10.948;2023-11-19T02:16:10;6.70;96.60
26541;DHT22;14206;50.202;10.948;2023-11-19T02:18:38;6.70;96.60
26541;DHT22;14206;50.202;10.948;2023-11-19T02:21:08;6.70;96.60
26541;DHT22;14206;50.202;10.948;2023-11-19T02:23:37;6.70;96.60
26541;DHT22;14206;50.202;10.948;2023-11-19T02:26:25;6.70;96.60
26541;DHT22;14206;50.202;10.948;2023-11-19T02:28:55;6.70;96.60
26541;DHT22;14206;50.202;10.948;2023-11-19T02:31:22;6.70;96.60
26541;DHT22;14206;50.202;10.948;2023-11-19T02:33:49;6.70;96.60
26541;DHT22;14206;50.202;10.948;2023-11-19T02:36:16;6.70;96.60
26541;DHT22;14206;50.202;10.948;2023-11-19T02:38:43;6.70;96.60
26541;DHT22;14206;50.202;10.948;2023-11-19T02:41:10;6.80;96.60
26541;DHT22;14206;50.202;10.948;2023-11-19T02:43:37;6.80;96.60
26541;DHT22;14206;50.202;10.948;2023-11-19T02:46:06;6.80;96.60
26541;DHT22;14206;50.202;10.948;2023-11-19T02:48:36;6.80;96.60
26541;DHT22;14206;50.202;10.948;2023-11-19T02:51:05;6.80;96.60
26541;DHT22;14206;50.202;10.948;2023-11-19T02:53:37;6.80;96.60
26541;DHT22;14206;50.202;10.948;2023-11-19T02:56:05;6.70;96.60
26541;DHT22;14206;50.202;10.948;2023-11-19T02:58:38;6.70;96.60
26541;DHT22;14206;50.202;10.948;2023-11-19T03:01:06;6.70;96.60
26541;DHT22;14206;50.202;10.948;2023-11-19T03:03:50;6.70;96.60
26541;DHT22;14206;50.202;10.948;2023-11-19T03:06:24;6.70;96.60
26541;DHT22;14206;50.202;10.948;2023-11-19T03:08:51;6.70;96.60
26541;DHT22;14206;50.202;10.948;2023-11-19T03:11:18;6.70;96.60
26541;DHT22;14206;50.202;10.948;2023-11-19T03:13:45;6.70;96.60
26541;DHT22;14206;50.202;10.948;2023-11-19T03:16:13;6.80;96.60
26541;DHT22;14206;50.202;10.948;2023-11-19T03:18:40;6.80;96.60
26541;DHT22;14206;50.202;10.948;2023-11-19T03:21:07;6.80;96.60
26541;DHT22;14206;50.202;10.948;2023-11-19T03:23:37;6.90;96.60
26541;DHT22;14206;50.202;10.948;2023-11-19T03:26:10;6.90;96.60
26541;DHT22;14206;50.202;10.948;2023-11-19T03:28:38;6.90;96.60
26541;DHT22;14206;50.202;10.948;2023-11-19T03:31:05;6.90;96.60
26541;DHT22;14206;50.202;10.948;2023-11-19T03:33:35;7.00;96.60
26541;DHT22;14206;50.202;10.948;2023-11-19T03:36:02;7.00;96.60
26541;DHT22;14206;50.202;10.948;2023-11-19T03:38:29;7.00;96.60
26541;DHT22;14206;50.202;10.948;2023-11-19T03:40:56;7.00;96.60
26541;DHT22;14206;50.202;10.948;2023-11-19T03:43:23;7.00;96.60
26541;DHT22;14206;50.202;10.948;2023-11-19T03:45:50;7.00;96.60
26541;DHT22;14206;50.202;10.948;2023-11-19T03:48:17;7.00;96.60
26541;DHT22;14206;50.202;10.948;2023-11-19T03:50:43;7.00;96.60
26541;DHT22;14206;50.202;10.948;2023-11-19T03:53:12;7.00;96.60
26541;DHT22;14206;50.202;10.948;2023-11-19T03:55:39;7.00;96.60
26541;DHT22;14206;50.202;10.948;2023-11-19T03:58:06;7.00;96.60
26541;DHT22;14206;50.202;10.948;2023-11-19T04:00:33;7.00;96.60
26541;DHT22;14206;50.202;10.948;2023-11-19T04:02:59;7.00;96.60
26541;DHT22;14206;50.202;10.948;2023-11-19T04:05:27;7.00;96.60
26541;DHT22;14206;50.202;10.948;2023-11-19T04:07:54;7.00;96.60
26541;DHT22;14206;50.202;10.948;2023-11-19T04:10:21;7.00;96.60
26541;DHT22;14206;50.202;10.948;2023-11-19T04:12:49;7.00;96.60
26541;DHT22;14206;50.202;10.948;2023-11-19T04:15:16;7.10;96.60
26541;DHT22;14206;50.202;10.948;2023-11-19T04:17:43;7.10;96.60
26541;DHT22;14206;50.202;10.948;2023-11-19T04:20:11;7.10;96.60
26541;DHT22;14206;50.202;10.948;2023-11-19T04:22:41;7.10;96.60
26541;DHT22;14206;50.202;10.948;2023-11-19T04:25:08;7.20;96.60
26541;DHT22;14206;50.202;10.948;2023-11-19T04:27:36;7.10;96.60
26541;DHT22;14206;50.202;10.948;2023-11-19T04:30:03;7.20;96.60
26541;DHT22;14206;50.202;10.948;2023-11-19T04:32:30;7.20;96.60
26541;DHT22;14206;50.202;10.948;2023-11-19T04:34:58;7.20;96.60
26541;DHT22;14206;50.202;10.948;2023-11-19T04:37:24;7.20;96.60
26541;DHT22;14206;50.202;10.948;2023-11-19T04:39:52;7.20;96.60
26541;DHT22;14206;50.202;10.948;2023-11-19T04:42:21;7.20;96.60
26541;DHT22;14206;50.202;10.948;2023-11-19T04:44:49;7.20;96.60
26541;DHT22;14206;50.202;10.948;2023-11-19T04:47:15;7.20;96.60
26541;DHT22;14206;50.202;10.948;2023-11-19T04:49:43;7.20;96.60
26541;DHT22;14206;50.202;10.948;2023-11-19T04:52:10;7.20;96.60
26541;DHT22;14206;50.202;10.948;2023-11-19T04:54:42;7.20;96.60
26541;DHT22;14206;50.202;10.948;2023-11-19T04:57:10;7.20;96.60
26541;DHT22;14206;50.202;10.948;2023-11-19T04:59:40;7.20;96.60
26541;DHT22;14206;50.202;10.948;2023-11-19T05:02:08;7.20;96.60
26541;DHT22;14206;50.202;10.948;2023-11-19T05:04:35;7.30;96.60
26541;DHT22;14206;50.202;10.948;2023-11-19T05:07:04;7.30;96.60
26541;DHT22;14206;50.202;10.948;2023-11-19T05:09:31;7.30;96.60
26541;DHT22;14206;50.202;10.948;2023-11-19T05:11:58;7.30;96.60
26541;DHT22;14206;50.202;10.948;2023-11-19T05:14:25;7.30;96.60
26541;DHT22;14206;50.202;10.948;2023-11-19T05:16:51;7.30;96.60
26541;DHT22;14206;50.202;10.948;2023-11-19T05:19:18;7.30;96.60
26541;DHT22;14206;50.202;10.948;2023-11-19T05:21:45;7.40;96.60
26541;DHT22;14206;50.202;10.948;2023-11-19T05:24:13;7.40;96.60
26541;DHT22;14206;50.202;10.948;2023-11-19T05:26:39;7.40;96.60
26541;DHT22;14206;50.202;10.948;2023-11-19T05:29:07;7.40;96.60
26541;DHT22;14206;50.202;10.948;2023-11-19T05:31:34;7.50;96.60
26541;DHT22;14206;50.202;10.948;2023-11-19T05:34:04;7.50;96.60
26541;DHT22;14206;50.202;10.948;2023-11-19T05:36:32;7.50;96.60
26541;DHT22;14206;50.202;10.948;2023-11-19T05:38:59;7.50;96.60
26541;DHT22;14206;50.202;10.948;2023-11-19T05:41:26;7.50;96.60
26541;DHT22;14206;50.202;10.948;2023-11-19T05:43:54;7.50;96.60
26541;DHT22;14206;50.202;10.948;2023-11-19T05:46:21;7.50;96.60
26541;DHT22;14206;50.202;10.948;2023-11-19T05:48:48;7.50;96.60
26541;DHT22;14206;50.202;10.948;2023-11-19T05:51:23;7.60;96.60
26541;DHT22;14206;50.202;10.948;2023-11-19T05:53:57;7.60;96.60
26541;DHT22;14206;50.202;10.948;2023-11-19T05:56:24;7.60;96.60
26541;DHT22;14206;50.202;10.948;2023-11-19T05:58:51;7.60;96.60
26541;DHT22;14206;50.202;10.948;2023-11-19T06:01:18;7.60;96.60
26541;DHT22;14206;50.202;10.948;2023-11-19T06:03:45;7.60;96.60
26541;DHT22;14206;50.202;10.948;2023-11-19T06:06:16;7.70;96.60
26541;DHT22;14206;50.202;10.948;2023-11-19T06:08:43;7.70;96.60
26541;DHT22;14206;50.202;10.948;2023-11-19T06:11:11;7.70;96.60
26541;DHT22;14206;50.202;10.948;2023-11-19T06:13:45;7.70;96.60
26541;DHT22;14206;50.202;10.948;2023-11-19T06:16:12;7.70;96.60
26541;DHT22;14206;50.202;10.948;2023-11-19T06:18:39;7.80;96.60
26541;DHT22;14206;50.202;10.948;2023-11-19T06:21:08;7.80;96.60
26541;DHT22;14206;50.202;10.948;2023-11-19T06:23:35;7.90;96.60
26541;DHT22;14206;50.202;10.948;2023-11-19T06:26:02;7.90;96.60
26541;DHT22;14206;50.202;10.948;2023-11-19T06:28:29;8.00;96.60
26541;DHT22;14206;50.202;10.948;2023-11-19T06:30:55;8.00;96.60
26541;DHT22;14206;50.202;10.948;2023-11-19T06:33:24;8.00;96.60
26541;DHT22;14206;50.202;10.948;2023-11-19T06:35:52;8.00;96.60
26541;DHT22;14206;50.202;10.948;2023-11-19T06:38:21;8.00;96.60
26541;DHT22;14206;50.202;10.948;2023-11-19T06:40:48;8.10;96.60
26541;DHT22;14206;50.202;10.948;2023-11-19T06:43:20;8.20;96.60
26541;DHT22;14206;50.202;10.948;2023-11-19T06:45:47;8.30;96.60
26541;DHT22;14206;50.202;10.948;2023-11-19T06:48:14;8.40;96.60
26541;DHT22;14206;50.202;10.948;2023-11-19T06:50:41;8.40;96.60
26541;DHT22;14206;50.202;10.948;2023-11-19T06:53:08;8.40;96.60
26541;DHT22;14206;50.202;10.948;2023-11-19T06:55:37;8.50;96.60
26541;DHT22;14206;50.202;10.948;2023-11-19T06:58:05;8.50;96.60
26541;DHT22;14206;50.202;10.948;2023-11-19T07:00:33;8.50;96.60
26541;DHT22;14206;50.202;10.948;2023-11-19T07:03:02;8.60;96.60
26541;DHT22;14206;50.202;10.948;2023-11-19T07:05:29;8.60;96.60
26541;DHT22;14206;50.202;10.948;2023-11-19T07:07:57;8.60;96.60
26541;DHT22;14206;50.202;10.948;2023-11-19T07:10:24;8.60;96.60
26541;DHT22;14206;50.202;10.948;2023-11-19T07:12:51;8.60;96.60
26541;DHT22;14206;50.202;10.948;2023-11-19T07:15:18;8.60;96.60
26541;DHT22;14206;50.202;10.948;2023-11-19T07:17:45;8.60;96.60
26541;DHT22;14206;50.202;10.948;2023-11-19T07:20:12;8.60;96.60
26541;DHT22;14206;50.202;10.948;2023-11-19T07:22:45;8.60;96.60
26541;DHT22;14206;50.202;10.948;2023-11-19T07:25:15;8.60;96.60
26541;DHT22;14206;50.202;10.948;2023-11-19T07:27:42;8.70;96.60
26541;DHT22;14206;50.202;10.948;2023-11-19T07:30:09;8.70;96.60
26541;DHT22;14206;50.202;10.948;2023-11-19T07:32:36;8.80;96.60
26541;DHT22;14206;50.202;10.948;2023-11-19T07:35:06;8.80;96.60
26541;DHT22;14206;50.202;10.948;2023-11-19T07:37:33;8.80;96.60
26541;DHT22;14206;50.202;10.948;2023-11-19T07:40:00;8.90;96.60
26541;DHT22;14206;50.202;10.948;2023-11-19T07:42:27;8.90;96.60
26541;DHT22;14206;50.202;10.948;2023-11-19T07:44:54;9.00;96.60
26541;DHT22;14206;50.202;10.948;2023-11-19T07:47:23;9.00;96.60
26541;DHT22;14206;50.202;10.948;2023-11-19T07:49:50;9.10;96.60
26541;DHT22;14206;50.202;10.948;2023-11-19T07:52:17;9.10;96.60
26541;DHT22;14206;50.202;10.948;2023-11-19T07:54:47;9.20;96.60
26541;DHT22;14206;50.202;10.948;2023-11-19T07:57:15;9.20;96.60
26541;DHT22;14206;50.202;10.948;2023-11-19T07:59:42;9.30;96.60
26541;DHT22;14206;50.202;10.948;2023-11-19T08:02:09;9.40;96.60
26541;DHT22;14206;50.202;10.948;2023-11-19T08:04:36;9.50;96.60
26541;DHT22;14206;50.202;10.948;2023-11-19T08:07:03;9.50;96.60
26541;DHT22;14206;50.202;10.948;2023-11-19T08:09:30;9.60;96.60
26541;DHT22;14206;50.202;10.948;2023-11-19T08:11:57;9.70;96.60
26541;DHT22;14206;50.202;10.948;2023-11-19T08:14:24;9.70;96.60
26541;DHT22;14206;50.202;10.948;2023-11-19T08:16:51;9.90;96.60
26541;DHT22;14206;50.202;10.948;2023-11-19T08:19:18;9.90;96.60
26541;DHT22;14206;50.202;10.948;2023-11-19T08:21:45;10.00;96.60
26541;DHT22;14206;50.202;10.948;2023-11-19T08:24:11;10.10;96.60
26541;DHT22;14206;50.202;10.948;2023-11-19T08:26:39;10.20;96.60
26541;DHT22;14206;50.202;10.948;2023-11-19T08:29:05;10.20;96.60
26541;DHT22;14206;50.202;10.948;2023-11-19T08:31:32;10.40;96.60
26541;DHT22;14206;50.202;10.948;2023-11-19T08:33:59;10.50;96.60
26541;DHT22;14206;50.202;10.948;2023-11-19T08:36:26;10.50;96.60
26541;DHT22;14206;50.202;10.948;2023-11-19T08:38:54;10.60;96.60
26541;DHT22;14206;50.202;10.948;2023-11-19T08:41:21;10.60;96.60
26541;DHT22;14206;50.202;10.948;2023-11-19T08:43:48;10.70;96.60
26541;DHT22;14206;50.202;10.948;2023-11-19T08:46:15;10.80;96.60
26541;DHT22;14206;50.202;10.948;2023-11-19T08:48:42;10.90;96.60
26541;DHT22;14206;50.202;10.948;2023-11-19T08:51:09;11.00;96.60
26541;DHT22;14206;50.202;10.948;2023-11-19T08:53:36;11.10;96.60
26541;DHT22;14206;50.202;10.948;2023-11-19T08:56:03;11.10;96.60
26541;DHT22;14206;50.202;10.948;2023-11-19T08:58:31;11.20;96.60
26541;DHT22;14206;50.202;10.948;2023-11-19T09:00:58;11.20;96.60
26541;DHT22;14206;50.202;10.948;2023-11-19T09:03:25;11.30;96.60
26541;DHT22;14206;50.202;10.948;2023-11-19T09:05:58;11.40;96.60
26541;DHT22;14206;50.202;10.948;2023-11-19T09:08:26;11.50;96.60
26541;DHT22;14206;50.202;10.948;2023-11-19T09:10:53;11.80;96.60
26541;DHT22;14206;50.202;10.948;2023-11-19T09:13:21;12.10;96.60
26541;DHT22;14206;50.202;10.948;2023-11-19T09:15:48;12.50;96.60
26541;DHT22;14206;50.202;10.948;2023-11-19T09:18:15;12.80;96.60
26541;DHT22;14206;50.202;10.948;2023-11-19T09:20:42;13.00;96.60
26541;DHT22;14206;50.202;10.948;2023-11-19T09:23:09;13.10;96.60
26541;DHT22;14206;50.202;10.948;2023-11-19T09:25:36;13.20;96.60
26541;DHT22;14206;50.202;10.948;2023-11-19T09:28:06;13.30;96.60
26541;DHT22;14206;50.202;10.948;2023-11-19T09:30:35;13.50;96.60
26541;DHT22;14206;50.202;10.948;2023-11-19T09:33:03;13.60;96.60
26541;DHT22;14206;50.202;10.948;2023-11-19T09:35:30;13.70;96.60
26541;DHT22;14206;50.202;10.948;2023-11-19T09:37:58;13.70;96.60
26541;DHT22;14206;50.202;10.948;2023-11-19T09:40:28;13.70;96.60
26541;DHT22;14206;50.202;10.948;2023-11-19T09:42:56;13.70;96.60
26541;DHT22;14206;50.202;10.948;2023-11-19T09:45:27;13.70;96.60
26541;DHT22;14206;50.202;10.948;2023-11-19T09:47:55;13.70;96.60
26541;DHT22;14206;50.202;10.948;2023-11-19T09:50:25;13.90;96.60
26541;DHT22;14206;50.202;10.948;2023-11-19T09:52:52;14.10;96.60
26541;DHT22;14206;50.202;10.948;2023-11-19T09:55:19;14.30;96.60
26541;DHT22;14206;50.202;10.948;2023-11-19T09:57:48;14.20;96.60
26541;DHT22;14206;50.202;10.948;2023-11-19T10:00:17;14.10;96.60
26541;DHT22;14206;50.202;10.948;2023-11-19T10:02:47;14.00;96.60
26541;DHT22;14206;50.202;10.948;2023-11-19T10:05:22;13.80;96.60
26541;DHT22;14206;50.202;10.948;2023-11-19T10:07:50;13.70;96.60
26541;DHT22;14206;50.202;10.948;2023-11-19T10:10:17;13.70;96.60
26541;DHT22;14206;50.202;10.948;2023-11-19T10:12:46;14.10;96.60
26541;DHT22;14206;50.202;10.948;2023-11-19T10:15:23;14.00;96.60
26541;DHT22;14206;50.202;10.948;2023-11-19T10:17:57;13.80;96.60
26541;DHT22;14206;50.202;10.948;2023-11-19T10:20:24;13.70;96.60
26541;DHT22;14206;50.202;10.948;2023-11-19T10:22:53;13.60;96.60
26541;DHT22;14206;50.202;10.948;2023-11-19T10:25:22;13.80;96.60
26541;DHT22;14206;50.202;10.948;2023-11-19T10:27:53;13.90;96.60
26541;DHT22;14206;50.202;10.948;2023-11-19T10:30:25;13.90;96.60
26541;DHT22;14206;50.202;10.948;2023-11-19T10:33:10;13.80;96.60
26541;DHT22;14206;50.202;10.948;2023-11-19T10:35:55;13.70;96.60
26541;DHT22;14206;50.202;10.948;2023-11-19T10:38:29;13.70;96.60
26541;DHT22;14206;50.202;10.948;2023-11-19T10:40:57;13.70;96.60
26541;DHT22;14206;50.202;10.948;2023-11-19T10:43:24;13.70;96.60
26541;DHT22;14206;50.202;10.948;2023-11-19T10:45:52;13.60;96.60
26541;DHT22;14206;50.202;10.948;2023-11-19T10:48:19;13.50;96.60
26541;DHT22;14206;50.202;10.948;2023-11-19T10:50:53;13.40;96.60
26541;DHT22;14206;50.202;10.948;2023-11-19T10:53:23;13.40;96.60
26541;DHT22;14206;50.202;10.948;2023-11-19T10:55:56;13.50;96.60
26541;DHT22;14206;50.202;10.948;2023-11-19T10:58:28;13.80;96.60
26541;DHT22;14206;50.202;10.948;2023-11-19T11:01:02;14.00;96.60
26541;DHT22;14206;50.202;10.948;2023-11-19T11:03:40;14.00;96.60
26541;DHT22;14206;50.202;10.948;2023-11-19T11:06:09;13.90;96.60
26541;DHT22;14206;50.202;10.948;2023-11-19T11:08:37;13.90;96.60
26541;DHT22;14206;50.202;10.948;2023-11-19T11:11:07;13.90;96.60
26541;DHT22;14206;50.202;10.948;2023-11-19T11:13:37;13.90;96.60
26541;DHT22;14206;50.202;10.948;2023-11-19T11:16:05;14.00;96.60
26541;DHT22;14206;50.202;10.948;2023-11-19T11:18:44;14.00;96.60
26541;DHT22;14206;50.202;10.948;2023-11-19T11:21:15;14.10;96.60
26541;DHT22;14206;50.202;10.948;2023-11-19T11:36:18;14.10;96.60
26541;DHT22;14206;50.202;10.948;2023-11-19T11:38:48;14.10;96.60
26541;DHT22;14206;50.202;10.948;2023-11-19T11:41:22;14.20;96.60
26541;DHT22;14206;50.202;10.948;2023-11-19T11:43:54;14.20;96.60
26541;DHT22;14206;50.202;10.948;2023-11-19T11:49:07;14.30;96.50
26541;DHT22;14206;50.202;10.948;2023-11-19T11:57:03;14.50;96.60
26541;DHT22;14206;50.202;10.948;2023-11-19T12:02:13;14.90;95.40
26541;DHT22;14206;50.202;10.948;2023-11-19T12:04:46;15.00;93.90
26541;DHT22;14206;50.202;10.948;2023-11-19T12:07:22;15.20;94.20
26541;DHT22;14206;50.202;10.948;2023-11-19T12:10:05;15.20;93.20
26541;DHT22;14206;50.202;10.948;2023-11-19T12:12:35;15.20;93.00
26541;DHT22;14206;50.202;10.948;2023-11-19T12:15:08;15.20;92.70
26541;DHT22;14206;50.202;10.948;2023-11-19T12:20:07;15.00;92.70
26541;DHT22;14206;50.202;10.948;2023-11-19T12:22:39;15.00;93.70
26541;DHT22;14206;50.202;10.948;2023-11-19T12:25:09;15.00;91.40
26541;DHT22;14206;50.202;10.948;2023-11-19T12:27:41;14.90;91.20
26541;DHT22;14206;50.202;10.948;2023-11-19T12:30:08;14.80;90.20
26541;DHT22;14206;50.202;10.948;2023-11-19T12:32:44;14.80;89.70
26541;DHT22;14206;50.202;10.948;2023-11-19T12:35:12;14.70;90.00
26541;DHT22;14206;50.202;10.948;2023-11-19T12:37:43;14.60;88.80
26541;DHT22;14206;50.202;10.948;2023-11-19T12:40:28;14.50;88.90
26541;DHT22;14206;50.202;10.948;2023-11-19T12:42:55;14.40;89.90
26541;DHT22;14206;50.202;10.948;2023-11-19T12:45:23;14.30;89.40
26541;DHT22;14206;50.202;10.948;2023-11-19T12:48:04;14.30;90.10
26541;DHT22;14206;50.202;10.948;2023-11-19T12:51:01;14.20;90.40
26541;DHT22;14206;50.202;10.948;2023-11-19T12:53:29;14.20;90.40
26541;DHT22;14206;50.202;10.948;2023-11-19T12:55:56;14.20;90.30
26541;DHT22;14206;50.202;10.948;2023-11-19T12:58:35;14.20;89.80
26541;DHT22;14206;50.202;10.948;2023-11-19T13:01:04;14.10;90.20
26541;DHT22;14206;50.202;10.948;2023-11-19T13:03:33;14.20;89.50
26541;DHT22;14206;50.202;10.948;2023-11-19T13:06:11;14.20;89.00
26541;DHT22;14206;50.202;10.948;2023-11-19T13:08:45;14.10;89.80
26541;DHT22;14206;50.202;10.948;2023-11-19T13:11:13;14.10;88.50
26541;DHT22;14206;50.202;10.948;2023-11-19T13:13:59;14.10;88.50
26541;DHT22;14206;50.202;10.948;2023-11-19T13:16:27;14.10;88.00
26541;DHT22;14206;50.202;10.948;2023-11-19T13:18:55;14.00;86.80
26541;DHT22;14206;50.202;10.948;2023-11-19T13:21:24;14.00;87.60
26541;DHT22;14206;50.202;10.948;2023-11-19T13:23:51;14.00;87.50
26541;DHT22;14206;50.202;10.948;2023-11-19T13:26:21;14.00;88.30
26541;DHT22;14206;50.202;10.948;2023-11-19T13:28:49;13.90;87.10
26541;DHT22;14206;50.202;10.948;2023-11-19T13:31:16;13.90;86.60
26541;DHT22;14206;50.202;10.948;2023-11-19T13:33:43;13.90;86.80
26541;DHT22;14206;50.202;10.948;2023-11-19T13:36:10;13.90;86.20
26541;DHT22;14206;50.202;10.948;2023-11-19T13:38:42;13.90;85.10
26541;DHT22;14206;50.202;10.948;2023-11-19T13:41:11;14.00;85.10
26541;DHT22;14206;50.202;10.948;2023-11-19T13:43:39;14.00;85.60
26541;DHT22;14206;50.202;10.948;2023-11-19T13:46:10;13.90;84.90
26541;DHT22;14206;50.202;10.948;2023-11-19T13:48:38;13.90;85.40
26541;DHT22;14206;50.202;10.948;2023-11-19T13:51:06;13.80;85.10
26541;DHT22;14206;50.202;10.948;2023-11-19T13:53:33;13.70;85.30
26541;DHT22;14206;50.202;10.948;2023-11-19T13:56:20;13.60;85.70
26541;DHT22;14206;50.202;10.948;2023-11-19T13:58:47;13.50;84.90
26541;DHT22;14206;50.202;10.948;2023-11-19T14:01:17;13.40;85.40
26541;DHT22;14206;50.202;10.948;2023-11-19T14:03:44;13.40;86.20
26541;DHT22;14206;50.202;10.948;2023-11-19T14:06:11;13.30;86.10
26541;DHT22;14206;50.202;10.948;2023-11-19T14:08:39;13.20;86.20
26541;DHT22;14206;50.202;10.948;2023-11-19T14:11:06;13.20;86.20
26541;DHT22;14206;50.202;10.948;2023-11-19T14:13:33;13.10;86.40
26541;DHT22;14206;50.202;10.948;2023-11-19T14:16:01;13.00;86.60
26541;DHT22;14206;50.202;10.948;2023-11-19T14:18:28;13.00;86.50
26541;DHT22;14206;50.202;10.948;2023-11-19T14:20:55;12.90;87.20
26541;DHT22;14206;50.202;10.948;2023-11-19T14:23:22;12.90;87.00
26541;DHT22;14206;50.202;10.948;2023-11-19T14:25:48;12.80;87.40
26541;DHT22;14206;50.202;10.948;2023-11-19T14:28:16;12.80;87.90
26541;DHT22;14206;50.202;10.948;2023-11-19T14:30:43;12.70;88.60
26541;DHT22;14206;50.202;10.948;2023-11-19T14:33:11;12.60;88.80
26541;DHT22;14206;50.202;10.948;2023-11-19T14:35:38;12.60;89.40
26541;DHT22;14206;50.202;10.948;2023-11-19T14:38:05;12.50;89.90
26541;DHT22;14206;50.202;10.948;2023-11-19T14:40:36;12.50;90.20
26541;DHT22;14206;50.202;10.948;2023-11-19T14:43:06;12.50;90.50
26541;DHT22;14206;50.202;10.948;2023-11-19T14:45:33;12.40;91.20
26541;DHT22;14206;50.202;10.948;2023-11-19T14:48:10;12.40;91.40
26541;DHT22;14206;50.202;10.948;2023-11-19T14:50:37;12.40;91.70
26541;DHT22;14206;50.202;10.948;2023-11-19T14:53:04;12.40;92.10
26541;DHT22;14206;50.202;10.948;2023-11-19T14:55:32;12.40;91.90
26541;DHT22;14206;50.202;10.948;2023-11-19T14:57:58;12.30;92.00
26541;DHT22;14206;50.202;10.948;2023-11-19T15:00:35;12.30;92.10
26541;DHT22;14206;50.202;10.948;2023-11-19T15:03:02;12.30;92.20
26541;DHT22;14206;50.202;10.948;2023-11-19T15:05:29;12.30;92.50
26541;DHT22;14206;50.202;10.948;2023-11-19T15:07:56;12.30;92.50
26541;DHT22;14206;50.202;10.948;2023-11-19T15:10:23;12.30;92.30
26541;DHT22;14206;50.202;10.948;2023-11-19T15:12:52;12.30;92.30
26541;DHT22;14206;50.202;10.948;2023-11-19T15:15:20;12.20;92.40
26541;DHT22;14206;50.202;10.948;2023-11-19T15:17:50;12.10;92.60
26541;DHT22;14206;50.202;10.948;2023-11-19T15:20:18;12.10;92.80
26541;DHT22;14206;50.202;10.948;2023-11-19T15:22:46;12.00;92.70
26541;DHT22;14206;50.202;10.948;2023-11-19T15:25:13;12.00;92.80
26541;DHT22;14206;50.202;10.948;2023-11-19T15:27:40;12.00;93.20
26541;DHT22;14206;50.202;10.948;2023-11-19T15:30:08;11.90;92.80
26541;DHT22;14206;50.202;10.948;2023-11-19T15:32:37;11.90;92.90
26541;DHT22;14206;50.202;10.948;2023-11-19T15:35:04;11.80;93.00
26541;DHT22;14206;50.202;10.948;2023-11-19T15:37:34;11.80;93.10
26541;DHT22;14206;50.202;10.948;2023-11-19T15:40:01;11.80;93.10
26541;DHT22;14206;50.202;10.948;2023-11-19T15:42:34;11.80;93.40
26541;DHT22;14206;50.202;10.948;2023-11-19T15:45:02;11.80;93.40
26541;DHT22;14206;50.202;10.948;2023-11-19T15:47:33;11.80;93.40
26541;DHT22;14206;50.202;10.948;2023-11-19T15:50:03;11.70;93.80
26541;DHT22;14206;50.202;10.948;2023-11-19T15:52:31;11.70;94.00
26541;DHT22;14206;50.202;10.948;2023-11-19T15:54:58;11.60;94.10
26541;DHT22;14206;50.202;10.948;2023-11-19T15:57:25;11.60;94.20
26541;DHT22;14206;50.202;10.948;2023-11-19T15:59:52;11.60;94.60
26541;DHT22;14206;50.202;10.948;2023-11-19T16:02:19;11.60;94.80
26541;DHT22;14206;50.202;10.948;2023-11-19T16:04:46;11.50;95.00